Time;durP1;ratioP1;P1;durP2;ratioP2;P2;SDS_P1;SDS_P2;PMS_P1;PMS_P2;Temp;Humidity;BMP_temperature;BMP_pressure;BME280_temperature;BME280_humidity;BME280_pressure;Samples;Min_cycle;Max_cycle;Signal;HPM_P1;HPM_P2
2022/03/30 00:02:18;;;;;;;21.33;11.10;;;8.20;1.00;9.30;92955.00;;;;7392462;19;20187;-75
2022/03/30 00:04:46;;;;;;;24.83;10.63;;;8.20;1.00;9.50;92962.00;;;;7393956;19;20141;-75
2022/03/30 00:07:13;;;;;;;25.33;10.80;;;8.20;1.00;9.20;92975.00;;;;7393689;19;20512;-74
2022/03/30 00:09:46;;;;;;;26.37;12.07;;;8.10;99.90;8.80;92962.00;;;;7393335;19;20547;-75
2022/03/30 00:12:13;;;;;;;24.83;12.17;;;7.90;99.90;8.80;92948.00;;;;7393013;19;20469;-75
2022/03/30 00:14:40;;;;;;;21.80;11.90;;;7.80;99.90;8.70;92970.00;;;;7393083;19;20132;-74
2022/03/30 00:17:14;;;;;;;19.47;12.17;;;7.70;99.90;8.50;92967.00;;;;7394324;19;20496;-75
2022/03/30 00:19:41;;;;;;;31.17;12.07;;;7.60;99.90;8.40;92972.00;;;;7395944;19;20459;-75
2022/03/30 00:22:09;;;;;;;20.67;12.20;;;7.50;99.90;8.30;92947.00;;;;7392061;19;20580;-74
2022/03/30 00:24:44;;;;;;;28.37;12.83;;;7.50;1.00;8.30;92934.00;;;;7392226;19;20154;-74
2022/03/30 00:27:11;;;;;;;23.97;11.43;;;7.40;99.90;8.40;92961.00;;;;7393340;19;20145;-74
2022/03/30 00:29:39;;;;;;;21.70;10.83;;;7.40;99.90;8.30;92950.00;;;;7394876;19;20603;-75
2022/03/30 00:32:12;;;;;;;21.63;12.30;;;7.40;1.00;8.60;92943.00;;;;7391720;19;20576;-74
2022/03/30 00:34:39;;;;;;;21.67;12.03;;;7.50;99.90;8.60;92946.00;;;;7392144;19;20140;-74
2022/03/30 00:37:08;;;;;;;19.93;11.33;;;7.50;99.90;8.40;92926.00;;;;7393164;19;20152;-75
2022/03/30 00:39:42;;;;;;;20.97;11.67;;;7.50;99.90;8.60;92947.00;;;;7395951;19;20643;-75
2022/03/30 00:42:18;;;;;;;28.87;12.13;;;7.50;99.90;8.40;92928.00;;;;7390411;19;20136;-74
2022/03/30 00:44:53;;;;;;;27.77;12.40;;;7.50;99.90;8.20;92925.00;;;;7391105;19;20135;-74
2022/03/30 00:47:34;;;;;;;21.17;12.17;;;7.50;1.00;8.20;92931.00;;;;7394301;19;20651;-75
2022/03/30 00:50:13;;;;;;;28.83;11.83;;;7.40;99.90;8.20;92946.00;;;;7397863;19;20145;-74
2022/03/30 00:52:40;;;;;;;26.40;12.13;;;7.40;1.00;8.40;92916.00;;;;7398252;19;20599;-74
2022/03/30 00:55:09;;;;;;;23.57;12.90;;;7.30;99.90;8.50;92939.00;;;;7397372;19;20129;-74
2022/03/30 00:57:43;;;;;;;23.20;11.17;;;7.40;99.90;8.50;92903.00;;;;7397079;19;20546;-74
2022/03/30 01:00:12;;;;;;;29.73;13.07;;;7.40;99.90;8.50;92923.00;;;;7399125;19;20200;-75
2022/03/30 01:02:43;;;;;;;24.90;12.67;;;7.40;99.90;8.40;92939.00;;;;7396336;19;20208;-76
2022/03/30 01:05:24;;;;;;;29.07;12.67;;;7.40;99.90;8.50;92905.00;;;;7398482;19;20124;-76
2022/03/30 01:07:51;;;;;;;22.93;12.63;;;7.40;99.90;8.60;92908.00;;;;7396456;19;20133;-75
2022/03/30 01:10:32;;;;;;;21.93;12.40;;;7.50;99.90;8.50;92918.00;;;;7396507;19;20133;-76
2022/03/30 01:13:02;;;;;;;23.77;11.83;;;7.50;99.90;8.50;92911.00;;;;7400087;19;20596;-76
2022/03/30 01:15:38;;;;;;;31.33;12.80;;;7.60;99.90;8.40;92897.00;;;;7397030;19;20133;-76
2022/03/30 01:18:05;;;;;;;22.20;12.03;;;7.60;99.90;8.50;92912.00;;;;7396906;19;20200;-76
2022/03/30 01:20:33;;;;;;;26.50;12.80;;;7.60;99.90;8.60;92904.00;;;;7399769;19;20599;-75
2022/03/30 01:23:07;;;;;;;18.97;11.40;;;7.70;99.90;8.70;92914.00;;;;7401618;19;20435;-75
2022/03/30 01:25:35;;;;;;;23.47;11.90;;;7.80;37.70;8.80;92885.00;;;;7398601;19;20886;-77
2022/03/30 01:28:02;;;;;;;27.47;12.60;;;7.80;57.90;8.80;92876.00;;;;7398860;19;20141;-75
2022/03/30 01:33:22;;;;;;;26.53;11.10;;;7.90;19.10;8.70;92886.00;;;;7396544;19;20603;-75
2022/03/30 01:35:56;;;;;;;22.30;12.77;;;7.90;42.20;8.80;92867.00;;;;7395380;19;20196;-76
2022/03/30 01:38:23;;;;;;;21.47;11.53;;;8.00;1.00;8.80;92845.00;;;;7395948;19;20145;-75
2022/03/30 01:40:51;;;;;;;20.90;11.40;;;8.00;5.60;8.70;92878.00;;;;7398559;19;20615;-75
2022/03/30 01:43:28;;;;;;;26.60;13.43;;;8.00;54.80;8.80;92866.00;;;;7396162;19;20121;-76
2022/03/30 01:46:08;;;;;;;21.00;11.27;;;8.00;1.00;8.60;92868.00;;;;7396719;19;20164;-75
2022/03/30 01:48:42;;;;;;;26.27;12.10;;;7.90;46.70;8.60;92835.00;;;;7397886;19;20129;-75
2022/03/30 01:51:10;;;;;;;22.63;12.47;;;7.90;77.50;8.60;92845.00;;;;7396679;19;20133;-74
2022/03/30 01:53:37;;;;;;;25.17;13.13;;;7.80;13.30;8.60;92858.00;;;;7395759;19;20137;-77
2022/03/30 01:56:11;;;;;;;23.20;12.50;;;7.80;19.20;8.50;92818.00;;;;7394571;19;20145;-75
2022/03/30 01:58:38;;;;;;;25.33;13.23;;;7.80;41.30;8.70;92838.00;;;;7396298;19;20517;-75
2022/03/30 02:01:05;;;;;;;24.97;12.43;;;7.80;2.00;8.70;92848.00;;;;7395950;19;20138;-76
2022/03/30 02:03:38;;;;;;;23.27;13.83;;;7.80;75.40;8.70;92833.00;;;;7394071;19;20137;-76
2022/03/30 02:06:06;;;;;;;26.87;13.10;;;7.80;26.90;8.50;92836.00;;;;7395041;19;20141;-76
2022/03/30 02:08:34;;;;;;;22.20;12.73;;;7.80;78.30;8.50;92837.00;;;;7395349;19;20198;-76
2022/03/30 02:11:07;;;;;;;29.47;13.17;;;7.80;91.80;8.40;92793.00;;;;7395247;19;20148;-75
2022/03/30 02:13:34;;;;;;;25.27;12.67;;;7.80;99.90;8.40;92836.00;;;;7395950;19;20159;-75
2022/03/30 02:16:01;;;;;;;24.57;13.37;;;7.80;99.90;8.50;92821.00;;;;7395787;19;20141;-76
2022/03/30 02:18:35;;;;;;;22.93;13.97;;;7.80;86.80;8.60;92785.00;;;;7396800;19;20158;-76
2022/03/30 02:21:02;;;;;;;30.00;13.70;;;7.80;77.50;8.40;92804.00;;;;7396181;19;20584;-76
2022/03/30 02:23:29;;;;;;;23.93;12.80;;;7.80;96.30;8.40;92762.00;;;;7393016;19;20136;-76
2022/03/30 02:26:04;;;;;;;26.20;13.93;;;7.80;99.90;8.60;92800.00;;;;7397130;19;20133;-76
2022/03/30 02:28:32;;;;;;;25.70;13.73;;;7.70;78.00;8.50;92800.00;;;;7394642;19;20596;-76
2022/03/30 02:31:00;;;;;;;26.50;12.80;;;7.70;99.90;8.50;92791.00;;;;7394846;19;20599;-76
2022/03/30 02:33:34;;;;;;;23.03;13.80;;;7.70;99.90;8.50;92811.00;;;;7395709;19;20598;-76
2022/03/30 02:36:03;;;;;;;23.90;13.43;;;7.70;99.90;8.40;92813.00;;;;7396324;19;20137;-75
2022/03/30 02:38:30;;;;;;;24.00;12.97;;;7.70;99.90;8.40;92776.00;;;;7394354;19;20622;-76
2022/03/30 02:41:05;;;;;;;21.10;13.83;;;7.70;99.90;8.40;92774.00;;;;7393660;19;20121;-76
2022/03/30 02:43:33;;;;;;;23.97;13.07;;;7.70;99.90;8.40;92811.00;;;;7394764;19;20595;-77
2022/03/30 02:46:00;;;;;;;25.27;13.57;;;7.70;99.90;8.40;92779.00;;;;7393116;19;20535;-76
2022/03/30 02:48:41;;;;;;;21.13;12.83;;;7.70;99.90;8.30;92794.00;;;;7393161;19;20672;-76
2022/03/30 02:51:09;;;;;;;22.47;13.07;;;7.60;99.90;8.30;92796.00;;;;7393135;19;20623;-76
2022/03/30 02:53:42;;;;;;;28.50;14.53;;;7.60;99.90;8.30;92770.00;;;;7394523;19;20557;-77
2022/03/30 02:56:09;;;;;;;25.53;14.53;;;7.50;99.90;8.20;92796.00;;;;7392872;19;20133;-76
2022/03/30 02:58:36;;;;;;;22.60;12.73;;;7.50;99.90;8.20;92801.00;;;;7393453;19;20615;-75
2022/03/30 03:01:10;;;;;;;25.40;13.53;;;7.40;99.90;8.00;92769.00;;;;7393669;19;20133;-74
2022/03/30 03:03:38;;;;;;;19.97;13.03;;;7.30;1.00;8.00;92793.00;;;;7392507;19;20133;-76
2022/03/30 03:06:05;;;;;;;21.87;12.70;;;7.20;1.00;7.80;92782.00;;;;7392599;19;20137;-75
2022/03/30 03:08:39;;;;;;;26.97;14.03;;;7.10;1.00;7.80;92763.00;;;;7390483;19;20275;-75
2022/03/30 03:11:06;;;;;;;28.10;14.47;;;7.00;1.00;7.90;92780.00;;;;7394270;19;20137;-75
2022/03/30 03:13:33;;;;;;;22.03;13.83;;;7.00;1.00;7.80;92754.00;;;;7392484;19;20137;-74
2022/03/30 03:16:07;;;;;;;30.90;14.53;;;6.90;1.00;7.70;92758.00;;;;7392756;19;20156;-75
2022/03/30 03:18:35;;;;;;;23.47;13.93;;;6.90;1.00;7.60;92778.00;;;;7393305;19;20635;-73
2022/03/30 03:21:02;;;;;;;22.43;12.23;;;6.80;1.00;7.80;92767.00;;;;7392379;19;20125;-74
2022/03/30 03:23:36;;;;;;;26.47;15.03;;;6.80;99.90;7.60;92787.00;;;;7392847;19;20124;-74
2022/03/30 03:26:03;;;;;;;26.00;13.47;;;6.70;99.90;7.50;92794.00;;;;7394220;19;20129;-74
2022/03/30 03:28:30;;;;;;;20.43;13.47;;;6.70;1.00;7.30;92780.00;;;;7394131;19;20136;-74
2022/03/30 03:31:04;;;;;;;29.93;14.53;;;6.60;99.90;7.30;92794.00;;;;7393894;19;20459;-75
2022/03/30 03:33:32;;;;;;;25.47;14.53;;;6.60;99.90;7.00;92774.00;;;;7392217;19;20152;-75
2022/03/30 03:35:59;;;;;;;28.53;14.67;;;6.50;99.90;6.90;92779.00;;;;7394197;19;20128;-74
2022/03/30 03:38:33;;;;;;;21.97;14.10;;;6.40;99.90;6.90;92771.00;;;;7392310;19;20144;-74
2022/03/30 03:41:00;;;;;;;29.20;14.23;;;6.30;1.00;7.10;92779.00;;;;7390896;19;20133;-75
2022/03/30 03:43:27;;;;;;;28.83;14.30;;;6.30;1.00;6.90;92790.00;;;;7391245;19;20565;-73
2022/03/30 03:46:08;;;;;;;28.83;14.27;;;6.30;1.00;7.00;92785.00;;;;7391834;19;20135;-74
2022/03/30 03:48:42;;;;;;;32.43;14.40;;;6.30;1.00;7.00;92750.00;;;;7392656;19;20123;-74
2022/03/30 03:51:15;;;;;;;26.73;15.43;;;6.20;1.00;6.80;92772.00;;;;7392156;19;20180;-73
2022/03/30 03:53:42;;;;;;;32.50;15.30;;;6.10;49.50;6.60;92770.00;;;;7392414;19;20132;-74
2022/03/30 03:56:09;;;;;;;28.67;14.13;;;6.00;99.90;6.50;92769.00;;;;7393512;19;20125;-74
2022/03/30 03:58:43;;;;;;;29.03;16.10;;;6.00;1.00;6.50;92771.00;;;;7391146;19;20132;-74
2022/03/30 04:01:10;;;;;;;31.83;15.70;;;5.90;1.00;6.40;92782.00;;;;7390283;19;20154;-74
2022/03/30 04:03:37;;;;;;;28.17;15.47;;;5.90;9.30;6.40;92774.00;;;;7392634;19;20113;-75
2022/03/30 04:06:11;;;;;;;30.20;14.77;;;5.80;99.90;6.30;92759.00;;;;7392861;19;20181;-74
2022/03/30 04:08:38;;;;;;;38.03;14.87;;;5.80;1.00;6.20;92738.00;;;;7391568;19;20137;-75
2022/03/30 04:11:05;;;;;;;28.27;15.40;;;5.80;1.00;6.20;92737.00;;;;7391132;19;20140;-74
2022/03/30 04:13:39;;;;;;;30.17;15.37;;;5.80;1.00;6.20;92745.00;;;;7392038;19;20155;-74
2022/03/30 04:16:07;;;;;;;37.73;16.37;;;5.70;96.00;6.10;92773.00;;;;7390725;19;20136;-75
2022/03/30 04:18:34;;;;;;;34.90;15.90;;;5.70;99.90;6.10;92745.00;;;;7391693;19;20133;-75
2022/03/30 04:21:09;;;;;;;44.30;16.13;;;5.70;99.90;6.10;92774.00;;;;7391057;19;20603;-75
2022/03/30 04:23:37;;;;;;;27.37;15.43;;;5.60;99.90;6.10;92776.00;;;;7390975;19;20448;-74
2022/03/30 04:26:04;;;;;;;36.67;15.80;;;5.60;1.00;6.10;92730.00;;;;7391537;19;20133;-73
2022/03/30 04:28:42;;;;;;;32.57;14.90;;;5.60;1.00;6.10;92769.00;;;;7391594;19;20135;-74
2022/03/30 04:31:11;;;;;;;37.17;14.83;;;5.60;1.00;6.10;92769.00;;;;7391142;19;20148;-74
2022/03/30 04:33:45;;;;;;;31.67;15.13;;;5.60;1.00;6.10;92749.00;;;;7391136;19;20494;-74
2022/03/30 04:36:13;;;;;;;27.40;15.17;;;5.60;1.00;6.10;92748.00;;;;7390475;19;21002;-74
2022/03/30 04:38:40;;;;;;;33.80;14.60;;;5.60;1.00;6.10;92747.00;;;;7391929;19;20129;-75
2022/03/30 04:41:14;;;;;;;37.27;14.63;;;5.60;1.00;6.10;92744.00;;;;7391138;19;20192;-74
2022/03/30 04:43:41;;;;;;;36.97;14.87;;;5.60;1.00;6.10;92759.00;;;;7389198;19;20154;-74
2022/03/30 04:46:08;;;;;;;35.27;13.83;;;5.60;1.00;6.10;92748.00;;;;7389530;19;20148;-75
2022/03/30 04:48:48;;;;;;;30.33;13.67;;;5.60;1.00;6.10;92736.00;;;;7392277;19;20133;-74
2022/03/30 04:51:15;;;;;;;32.03;13.90;;;5.60;7.70;6.10;92739.00;;;;7390441;19;20158;-74
2022/03/30 04:53:49;;;;;;;27.20;12.63;;;5.60;25.50;6.00;92750.00;;;;7389096;19;20200;-74
2022/03/30 04:56:16;;;;;;;29.30;12.63;;;5.60;47.60;6.10;92722.00;;;;7390266;19;20145;-75
2022/03/30 04:58:43;;;;;;;21.23;11.73;;;5.60;54.40;6.20;92734.00;;;;7392135;19;20129;-74
2022/03/30 05:01:17;;;;;;;29.30;13.10;;;5.60;67.60;6.10;92734.00;;;;7389004;19;20165;-74
2022/03/30 05:03:44;;;;;;;30.23;12.63;;;5.60;62.90;6.10;92699.00;;;;7389724;19;20603;-74
2022/03/30 05:06:13;;;;;;;29.50;12.00;;;5.50;46.50;6.10;92730.00;;;;7391768;19;20530;-74
2022/03/30 05:08:46;;;;;;;29.27;12.87;;;5.50;14.50;6.00;92735.00;;;;7389458;19;20168;-74
2022/03/30 05:11:14;;;;;;;29.67;12.40;;;5.50;1.00;5.80;92718.00;;;;7390429;19;20623;-74
2022/03/30 05:13:41;;;;;;;31.53;12.17;;;5.40;1.00;5.80;92732.00;;;;7389662;19;20625;-74
2022/03/30 05:16:15;;;;;;;31.77;12.50;;;5.40;1.00;5.80;92733.00;;;;7390478;19;20639;-75
2022/03/30 05:18:43;;;;;;;27.73;11.23;;;5.40;13.80;5.80;92723.00;;;;7389918;19;20132;-73
2022/03/30 05:21:10;;;;;;;30.57;12.07;;;5.40;23.70;5.80;92709.00;;;;7388264;19;20140;-74
2022/03/30 05:23:43;;;;;;;24.90;11.93;;;5.40;75.60;5.80;92693.00;;;;7385048;19;20157;-74
2022/03/30 05:26:10;;;;;;;26.00;11.43;;;5.40;85.70;5.90;92711.00;;;;7392625;19;20137;-74
2022/03/30 05:28:38;;;;;;;26.40;11.90;;;5.40;99.90;5.90;92709.00;;;;7388177;19;20140;-74
2022/03/30 05:31:12;;;;;;;22.60;11.80;;;5.40;99.90;5.90;92693.00;;;;7389082;19;20144;-73
2022/03/30 05:33:40;;;;;;;22.60;11.63;;;5.40;99.90;6.00;92713.00;;;;7396253;19;20140;-74
2022/03/30 05:36:09;;;;;;;26.80;10.93;;;5.40;99.90;6.00;92708.00;;;;7398855;19;20153;-73
2022/03/30 05:38:45;;;;;;;35.93;12.13;;;5.40;99.90;5.90;92706.00;;;;7396546;19;20136;-75
2022/03/30 05:41:13;;;;;;;27.80;10.87;;;5.40;99.90;6.00;92676.00;;;;7397386;19;20697;-76
2022/03/30 05:43:40;;;;;;;27.70;11.10;;;5.40;99.90;5.90;92689.00;;;;7396640;19;20133;-74
2022/03/30 05:46:27;;;;;;;28.70;11.73;;;5.40;99.90;6.00;92679.00;;;;7398373;19;20463;-75
2022/03/30 05:49:02;;;;;;;19.40;10.93;;;5.40;99.90;6.00;92679.00;;;;7399617;19;20125;-76
2022/03/30 05:51:36;;;;;;;23.07;10.60;;;5.40;99.90;6.00;92701.00;;;;7398997;19;20147;-74
2022/03/30 05:54:04;;;;;;;23.83;11.00;;;5.40;99.90;6.00;92672.00;;;;7403209;19;20633;-75
2022/03/30 05:59:24;;;;;;;24.83;11.03;;;5.50;99.90;6.00;92693.00;;;;7403791;19;20607;-75
2022/03/30 06:01:52;;;;;;;22.57;10.90;;;5.50;99.90;6.10;92678.00;;;;7400861;19;20144;-74
2022/03/30 06:04:20;;;;;;;27.90;11.43;;;5.50;99.90;6.10;92685.00;;;;7397222;19;20137;-75
2022/03/30 06:06:54;;;;;;;24.80;12.20;;;5.60;99.90;6.20;92680.00;;;;7400891;19;20161;-75
2022/03/30 06:09:22;;;;;;;27.77;11.43;;;5.60;99.90;6.20;92675.00;;;;7398087;19;20635;-75
2022/03/30 06:12:07;;;;;;;23.17;10.37;;;5.60;99.90;6.30;92674.00;;;;7398764;19;20132;-74
2022/03/30 06:14:41;;;;;;;25.03;11.57;;;5.60;99.90;6.30;92685.00;;;;7401872;19;20196;-75
2022/03/30 06:17:10;;;;;;;26.07;10.30;;;5.60;99.90;6.20;92698.00;;;;7399473;19;20480;-76
2022/03/30 06:19:39;;;;;;;24.57;9.90;;;5.70;99.90;6.40;92691.00;;;;7399422;19;20152;-75
2022/03/30 06:22:14;;;;;;;22.57;10.77;;;5.70;99.90;6.30;92698.00;;;;7399437;19;20607;-74
2022/03/30 06:24:42;;;;;;;23.43;9.90;;;5.70;99.90;6.30;92694.00;;;;7398432;19;20137;-75
2022/03/30 06:27:11;;;;;;;22.30;9.93;;;5.80;99.90;6.40;92690.00;;;;7397012;19;20133;-74
2022/03/30 06:29:49;;;;;;;18.90;9.63;;;5.80;99.90;6.40;92688.00;;;;7399259;19;20140;-75
2022/03/30 06:32:18;;;;;;;22.40;9.93;;;5.80;65.10;6.60;92689.00;;;;7401143;19;20152;-75
2022/03/30 06:34:45;;;;;;;24.40;10.63;;;5.90;40.20;6.60;92666.00;;;;7402783;19;20488;-75
2022/03/30 06:37:19;;;;;;;22.63;9.67;;;5.90;1.00;6.60;92673.00;;;;7401380;19;20133;-75
2022/03/30 06:39:48;;;;;;;22.57;9.80;;;6.00;1.00;6.60;92692.00;;;;7401336;19;20125;-74
2022/03/30 06:42:19;;;;;;;31.80;9.63;;;6.00;1.00;6.70;92689.00;;;;7403985;19;20651;-75
2022/03/30 06:44:53;;;;;;;20.93;10.43;;;6.10;1.00;6.80;92684.00;;;;7399609;19;20156;-75
2022/03/30 06:47:34;;;;;;;22.03;9.53;;;6.20;1.00;7.00;92649.00;;;;7401193;19;20175;-75
2022/03/30 06:50:09;;;;;;;17.87;9.50;;;6.20;1.00;7.10;92661.00;;;;7403284;19;20159;-76
2022/03/30 06:52:37;;;;;;;18.53;9.13;;;6.20;1.00;7.10;92661.00;;;;7400998;19;20445;-75
2022/03/30 06:55:06;;;;;;;21.63;9.73;;;6.30;1.00;7.10;92686.00;;;;7400615;19;20137;-74
2022/03/30 06:57:42;;;;;;;24.33;10.43;;;6.40;1.00;7.30;92677.00;;;;7399022;19;20935;-75
2022/03/30 07:00:14;;;;;;;25.53;9.73;;;6.40;1.00;7.30;92668.00;;;;7399726;19;20124;-74
2022/03/30 07:02:47;;;;;;;22.77;9.77;;;6.40;1.00;7.20;92676.00;;;;7397681;19;20125;-74
2022/03/30 07:05:15;;;;;;;22.60;10.07;;;6.30;1.00;7.10;92651.00;;;;7393146;19;20136;-74
2022/03/30 07:10:35;;;;;;;27.10;10.30;;;6.30;1.00;7.00;92665.00;;;;7391591;19;20200;-75
2022/03/30 07:13:03;;;;;;;25.73;10.73;;;6.30;1.00;7.00;92617.00;;;;7394114;19;20663;-74
2022/03/30 07:15:32;;;;;;;19.97;9.80;;;6.30;1.00;7.00;92639.00;;;;7393039;19;20717;-73
2022/03/30 07:18:08;;;;;;;19.83;10.30;;;6.30;1.00;7.00;92650.00;;;;7393018;19;20603;-74
2022/03/30 07:20:37;;;;;;;26.53;9.93;;;6.20;1.00;7.00;92659.00;;;;7392924;19;20141;-74
2022/03/30 07:23:05;;;;;;;24.07;10.80;;;6.30;3.00;7.10;92638.00;;;;7394760;19;20152;-74
2022/03/30 07:25:39;;;;;;;19.30;10.37;;;6.30;27.60;7.10;92665.00;;;;7390736;19;20142;-73
2022/03/30 07:28:08;;;;;;;21.47;9.77;;;6.30;28.80;7.20;92642.00;;;;7392882;19;20465;-74
2022/03/30 07:30:37;;;;;;;21.97;10.30;;;6.40;41.10;7.20;92654.00;;;;7391426;19;20193;-73
2022/03/30 07:33:12;;;;;;;18.77;9.87;;;6.50;8.70;7.40;92651.00;;;;7391707;19;20143;-75
2022/03/30 07:35:46;;;;;;;25.50;10.07;;;6.60;4.90;7.50;92647.00;;;;7392030;19;20184;-74
2022/03/30 07:38:21;;;;;;;21.23;10.63;;;6.70;99.90;7.50;92622.00;;;;7391149;19;20148;-73
2022/03/30 07:40:50;;;;;;;17.67;8.77;;;6.90;1.00;7.80;92612.00;;;;7391524;19;20140;-75
2022/03/30 07:43:19;;;;;;;19.27;8.50;;;7.10;1.00;8.10;92647.00;;;;7391545;19;20542;-74
2022/03/30 07:45:59;;;;;;;19.27;9.10;;;7.20;1.00;8.40;92640.00;;;;7390164;19;20132;-74
2022/03/30 07:48:34;;;;;;;15.17;8.13;;;7.30;1.00;8.40;92639.00;;;;7388499;19;20144;-74
2022/03/30 07:51:11;;;;;;;18.07;7.87;;;7.30;99.90;8.20;92622.00;;;;7388763;19;20131;-73
2022/03/30 07:53:39;;;;;;;20.73;7.70;;;7.30;99.90;8.20;92623.00;;;;7392332;19;20131;-75
2022/03/30 07:56:07;;;;;;;18.30;8.10;;;7.30;99.90;8.10;92598.00;;;;7391575;19;20157;-74
2022/03/30 07:58:41;;;;;;;15.30;7.37;;;7.30;99.90;8.10;92629.00;;;;7392729;19;20184;-73
2022/03/30 08:01:08;;;;;;;17.50;6.70;;;7.20;1.00;8.10;92633.00;;;;7390989;19;20140;-73
2022/03/30 08:03:36;;;;;;;15.60;8.07;;;7.20;11.30;8.10;92621.00;;;;7389634;19;20137;-74
2022/03/30 08:06:12;;;;;;;14.03;6.83;;;7.10;44.30;7.90;92642.00;;;;7390412;19;20136;-74
2022/03/30 08:08:40;;;;;;;19.00;7.67;;;7.00;99.90;7.70;92629.00;;;;7391979;19;20587;-74
2022/03/30 08:11:07;;;;;;;18.10;7.87;;;7.00;99.90;7.70;92621.00;;;;7392632;19;20192;-74
2022/03/30 08:13:42;;;;;;;13.33;7.40;;;7.00;99.90;7.70;92650.00;;;;7390454;19;20140;-74
2022/03/30 08:16:09;;;;;;;15.53;7.93;;;7.00;99.90;7.80;92639.00;;;;7391873;19;20129;-74
2022/03/30 08:18:37;;;;;;;14.30;6.93;;;7.00;1.00;7.80;92650.00;;;;7392201;19;20135;-74
2022/03/30 08:23:57;;;;;;;16.13;8.00;;;7.00;1.00;7.90;92634.00;;;;7392523;19;20148;-73
2022/03/30 08:26:31;;;;;;;14.80;7.20;;;7.10;1.00;7.80;92653.00;;;;7391194;19;20140;-75
2022/03/30 08:28:59;;;;;;;14.43;7.53;;;7.20;1.00;8.10;92647.00;;;;7389942;19;20479;-76
2022/03/30 08:31:47;;;;;;;17.07;7.87;;;7.10;1.00;8.00;92647.00;;;;7392016;19;20140;-75
2022/03/30 08:34:22;;;;;;;13.37;6.80;;;7.10;1.00;7.90;92649.00;;;;7390842;19;20231;-74
2022/03/30 08:36:49;;;;;;;12.87;6.73;;;7.00;1.00;7.70;92650.00;;;;7391064;19;20137;-74
2022/03/30 08:39:18;;;;;;;15.23;6.33;;;7.00;1.00;7.80;92645.00;;;;7390057;19;20163;-74
2022/03/30 08:41:53;;;;;;;16.20;6.93;;;7.00;1.00;7.60;92627.00;;;;7389953;19;20132;-74
2022/03/30 08:44:21;;;;;;;19.53;7.00;;;7.00;1.00;7.70;92630.00;;;;7387914;19;20127;-75
2022/03/30 08:46:48;;;;;;;13.73;6.53;;;7.00;1.00;7.60;92621.00;;;;7386347;19;20207;-74
2022/03/30 08:49:33;;;;;;;13.67;6.63;;;7.00;1.00;7.60;92651.00;;;;7386173;19;20163;-74
2022/03/30 08:52:04;;;;;;;10.63;5.97;;;6.90;1.00;7.60;92651.00;;;;7386451;19;20144;-74
2022/03/30 08:54:46;;;;;;;26.90;7.30;;;6.90;1.00;7.60;92633.00;;;;7386283;19;20144;-74
2022/03/30 08:57:14;;;;;;;13.60;7.23;;;6.90;1.00;7.50;92644.00;;;;7394727;19;20151;-75
2022/03/30 09:00:20;;;;;;;12.53;6.80;;;6.90;1.00;7.70;92653.00;;;;7391680;19;20140;-75
2022/03/30 09:03:01;;;;;;;15.67;7.47;;;6.90;1.00;7.70;92645.00;;;;7390878;19;20497;-74
2022/03/30 09:05:37;;;;;;;13.37;6.63;;;6.90;1.00;7.80;92631.00;;;;7389095;19;20204;-75
2022/03/30 09:08:14;;;;;;;14.10;7.33;;;7.00;1.00;7.70;92640.00;;;;7396884;19;20522;-75
2022/03/30 09:10:51;;;;;;;11.70;6.93;;;7.00;1.00;7.70;92634.00;;;;7400062;19;20121;-75
2022/03/30 09:13:20;;;;;;;9.67;6.70;;;7.00;1.00;7.80;92639.00;;;;7400797;19;20133;-75
2022/03/30 09:15:55;;;;;;;15.90;6.77;;;7.10;1.00;8.00;92626.00;;;;7404764;19;20147;-74
2022/03/30 09:18:23;;;;;;;16.43;7.67;;;7.10;1.00;8.00;92641.00;;;;7403648;19;20148;-75
2022/03/30 09:20:54;;;;;;;12.50;7.57;;;7.20;99.90;8.10;92621.00;;;;7401701;19;20477;-76
2022/03/30 09:23:27;;;;;;;16.57;6.73;;;7.30;99.90;8.10;92639.00;;;;7404435;19;20146;-74
2022/03/30 09:25:57;;;;;;;14.00;6.73;;;7.30;99.90;8.20;92633.00;;;;7401871;19;21068;-75
2022/03/30 09:28:25;;;;;;;10.73;6.70;;;7.30;99.90;8.10;92599.00;;;;7399755;19;20937;-74
2022/03/30 09:30:59;;;;;;;11.07;7.10;;;7.40;99.90;7.80;92606.00;;;;7400426;19;20125;-75
2022/03/30 09:33:27;;;;;;;10.93;6.50;;;7.50;99.90;8.00;92644.00;;;;7399151;19;20139;-75
2022/03/30 09:35:54;;;;;;;13.17;7.30;;;7.50;99.90;8.20;92639.00;;;;7401100;19;20648;-75
2022/03/30 09:38:38;;;;;;;13.37;7.50;;;7.40;99.90;8.20;92616.00;;;;7399466;19;20140;-75
2022/03/30 09:41:08;;;;;;;18.90;7.73;;;7.50;99.90;8.20;92635.00;;;;7400249;19;20125;-76
2022/03/30 09:43:42;;;;;;;11.83;6.90;;;7.60;99.90;8.30;92617.00;;;;7406922;19;20856;-74
2022/03/30 09:46:12;;;;;;;14.87;7.87;;;7.60;99.90;8.30;92631.00;;;;7403320;19;20489;-75
2022/03/30 09:48:49;;;;;;;12.80;7.50;;;7.60;4.50;8.30;92631.00;;;;7396383;19;20176;-75
2022/03/30 09:51:26;;;;;;;16.50;7.43;;;7.60;1.00;8.30;92610.00;;;;7401268;19;20592;-75
2022/03/30 09:53:54;;;;;;;12.50;7.43;;;7.50;25.90;8.40;92619.00;;;;7400574;19;20128;-75
2022/03/30 09:56:24;;;;;;;13.20;8.27;;;7.60;99.90;8.30;92599.00;;;;7402263;19;20611;-75
2022/03/30 09:59:01;;;;;;;15.70;8.67;;;7.50;1.00;8.30;92615.00;;;;7402527;19;20149;-74
2022/03/30 10:01:32;;;;;;;18.93;9.13;;;7.50;1.00;8.30;92618.00;;;;7403305;19;20145;-75
2022/03/30 10:04:08;;;;;;;17.23;9.77;;;7.50;1.00;8.20;92613.00;;;;7404657;19;20635;-76
2022/03/30 10:06:40;;;;;;;22.37;11.53;;;7.40;1.00;8.00;92607.00;;;;7400612;19;20585;-76
2022/03/30 10:09:16;;;;;;;17.70;10.97;;;7.40;1.00;7.90;92614.00;;;;7403981;19;20222;-75
2022/03/30 10:11:44;;;;;;;21.80;12.80;;;7.30;1.00;7.90;92620.00;;;;7403299;19;20208;-76
2022/03/30 10:14:13;;;;;;;22.13;14.03;;;7.30;1.00;7.90;92607.00;;;;7403607;19;20156;-77
2022/03/30 10:16:48;;;;;;;22.00;14.33;;;7.20;1.00;8.00;92586.00;;;;7408310;19;20567;-74
2022/03/30 10:19:16;;;;;;;23.93;14.83;;;7.20;99.90;7.90;92592.00;;;;7406052;19;20133;-78
2022/03/30 10:22:01;;;;;;;21.53;14.67;;;7.10;99.90;7.90;92599.00;;;;7406954;19;20468;-76
2022/03/30 10:25:29;;;;;;;25.17;15.50;;;7.10;99.90;7.70;92603.00;;;;7410069;19;20147;-76
2022/03/30 10:28:13;;;;;;;30.07;16.30;;;7.10;99.90;7.80;92604.00;;;;7411350;19;20135;-75
2022/03/30 10:30:56;;;;;;;23.50;16.00;;;7.10;99.90;7.80;92583.00;;;;7415464;19;20146;-74
2022/03/30 10:33:52;;;;;;;27.93;17.03;;;7.10;99.90;8.00;92560.00;;;;7414292;19;20161;-74
2022/03/30 10:36:32;;;;;;;24.30;15.73;;;7.00;99.90;7.90;92592.00;;;;7416739;19;20135;-76
2022/03/30 10:39:26;;;;;;;25.97;16.33;;;7.10;99.90;7.90;92569.00;;;;7413531;19;20141;-76
2022/03/30 10:42:21;;;;;;;22.90;16.80;;;7.10;99.90;7.80;92562.00;;;;7412967;19;20134;-75
2022/03/30 10:44:57;;;;;;;24.37;17.80;;;7.10;99.90;7.80;92589.00;;;;7413225;19;20145;-77
2022/03/30 10:47:44;;;;;;;25.67;16.50;;;7.10;99.90;7.80;92573.00;;;;7413886;19;20141;-75
2022/03/30 10:50:37;;;;;;;24.60;16.60;;;7.00;99.90;7.70;92591.00;;;;7411686;19;20168;-77
2022/03/30 10:53:33;;;;;;;30.30;16.37;;;7.10;99.90;7.90;92567.00;;;;7414112;19;20161;-75
2022/03/30 10:56:15;;;;;;;28.07;18.10;;;7.00;99.90;7.80;92582.00;;;;7414483;19;20118;-74
2022/03/30 10:58:49;;;;;;;27.13;17.97;;;7.00;99.90;7.80;92576.00;;;;7414950;19;20139;-75
2022/03/30 11:01:25;;;;;;;28.53;17.43;;;6.90;99.90;7.90;92558.00;;;;7413932;19;20133;-75
2022/03/30 11:04:02;;;;;;;29.53;17.90;;;6.90;99.90;7.70;92572.00;;;;7414141;19;20139;-75
2022/03/30 11:06:39;;;;;;;27.27;17.30;;;6.90;99.90;7.80;92562.00;;;;7412655;19;20149;-74
2022/03/30 11:09:22;;;;;;;31.43;17.93;;;6.80;1.00;7.60;92568.00;;;;7412554;19;20169;-74
2022/03/30 11:12:02;;;;;;;26.67;17.97;;;6.90;1.00;7.90;92573.00;;;;7415150;19;20634;-74
2022/03/30 11:14:41;;;;;;;28.57;18.43;;;6.80;1.00;7.80;92537.00;;;;7413902;19;20133;-75
2022/03/30 11:17:15;;;;;;;31.40;19.83;;;6.80;1.00;7.70;92570.00;;;;7411892;19;20125;-74
2022/03/30 11:19:57;;;;;;;31.60;20.80;;;6.80;1.00;7.60;92559.00;;;;7408018;19;20141;-74
2022/03/30 11:22:33;;;;;;;31.37;20.57;;;6.80;1.00;7.70;92539.00;;;;7412360;19;20125;-74
2022/03/30 11:25:23;;;;;;;34.97;20.50;;;6.80;1.00;7.70;92554.00;;;;7416399;19;20144;-74
2022/03/30 11:28:01;;;;;;;36.20;21.97;;;6.90;1.00;7.60;92556.00;;;;7412481;19;20155;-75
2022/03/30 11:30:39;;;;;;;44.60;23.47;;;6.90;1.00;7.80;92540.00;;;;7408934;19;20140;-74
2022/03/30 11:33:15;;;;;;;37.20;23.97;;;6.90;1.00;7.90;92547.00;;;;7413382;19;20139;-75
2022/03/30 11:35:52;;;;;;;41.37;24.40;;;6.90;1.00;7.70;92542.00;;;;7412129;19;20223;-75